createdAt,value
2016-11-24T00:00:39.356Z,86.52
2016-11-24T00:01:48.050Z,87.46
2016-11-24T00:02:56.734Z,88.03
2016-11-24T00:04:05.430Z,87.74
2016-11-24T00:05:14.127Z,87.74
2016-11-24T00:06:22.816Z,88.22
2016-11-24T00:07:31.509Z,88.31
2016-11-24T00:08:40.202Z,88.69
2016-11-24T00:09:48.889Z,89.36
2016-11-24T00:10:57.583Z,90.58
2016-11-24T00:12:06.278Z,90.68
2016-11-24T00:13:14.994Z,91.43
2016-11-24T00:14:23.696Z,91.05
2016-11-24T00:15:32.389Z,90.58
2016-11-24T00:16:41.078Z,89.92
2016-11-24T00:17:49.770Z,89.54
2016-11-24T00:18:58.470Z,89.54
2016-11-24T00:20:07.503Z,88.79
2016-11-24T00:21:16.191Z,88.5
2016-11-24T00:22:24.881Z,88.03
2016-11-24T00:23:33.611Z,87.08
2016-11-24T00:24:42.304Z,87.55
2016-11-24T00:25:50.997Z,87.46
2016-11-24T00:26:59.690Z,87.04
2016-11-24T00:28:08.394Z,86.99
2016-11-24T00:29:17.084Z,86.61
2016-11-24T00:30:25.771Z,87.46
2016-11-24T00:31:34.467Z,87.23
2016-11-24T00:32:43.159Z,87.7
2016-11-24T00:33:51.847Z,87.55
2016-11-24T00:35:00.541Z,87.18
2016-11-24T00:36:09.231Z,87.55
2016-11-24T00:37:17.925Z,88.5
2016-11-24T00:38:26.622Z,89.07
2016-11-24T00:39:35.322Z,88.88
2016-11-24T00:40:44.011Z,89.45
2016-11-24T00:41:52.696Z,88.98
2016-11-24T00:43:01.397Z,89.36
2016-11-24T00:44:10.407Z,88.88
2016-11-24T00:45:19.095Z,89.73
2016-11-24T00:46:27.781Z,89.45
2016-11-24T00:47:36.472Z,89.54
2016-11-24T00:48:45.162Z,89.54
2016-11-24T00:49:53.853Z,89.45
2016-11-24T00:51:02.544Z,89.45
2016-11-24T00:52:11.237Z,89.45
2016-11-24T00:53:19.932Z,88.88
2016-11-24T00:54:28.628Z,89.36
2016-11-24T00:55:37.321Z,89.64
2016-11-24T00:56:46.022Z,88.98
2016-11-24T00:57:54.712Z,88.41
2016-11-24T00:59:03.417Z,88.98
2016-11-24T01:00:12.133Z,87.37
2016-11-24T01:01:20.823Z,86.61
2016-11-24T01:02:29.525Z,85.57
2016-11-24T01:03:38.222Z,83.59
2016-11-24T01:04:46.915Z,83.91
2016-11-24T01:05:55.607Z,84.58
2016-11-24T01:07:04.299Z,83.91
2016-11-24T01:08:12.997Z,83.82
2016-11-24T01:09:21.686Z,82.97
2016-11-24T01:10:30.377Z,83.25
2016-11-24T01:11:39.071Z,80.69
2016-11-24T01:12:47.771Z,79.56
2016-11-24T01:13:56.466Z,79.66
2016-11-24T01:15:05.161Z,80.22
2016-11-24T01:16:13.887Z,80.41
2016-11-24T01:17:22.577Z,81.26
2016-11-24T01:18:31.261Z,82.02
2016-11-24T01:19:39.952Z,81.26
2016-11-24T01:20:48.643Z,81.83
2016-11-24T01:21:57.335Z,82.87
2016-11-24T01:23:06.027Z,83.15
2016-11-24T01:24:14.716Z,83.63
2016-11-24T01:25:23.406Z,83.63
2016-11-24T01:26:32.096Z,84.16
2016-11-24T01:27:40.784Z,84.34
2016-11-24T01:28:49.477Z,84.01
2016-11-24T01:29:58.167Z,84.95
2016-11-24T01:31:07.182Z,85.19
2016-11-24T01:32:15.874Z,85.19
2016-11-24T01:33:24.559Z,85.57
2016-11-24T01:34:33.297Z,85.38
2016-11-24T01:35:41.991Z,85.38
2016-11-24T01:36:50.680Z,84.25
2016-11-24T01:37:59.371Z,84.06
2016-11-24T01:39:08.061Z,84.06
2016-11-24T01:40:16.757Z,83.78
2016-11-24T01:41:25.770Z,83.59
2016-11-24T01:42:34.457Z,84.34
2016-11-24T01:43:43.153Z,84.16
2016-11-24T01:44:51.847Z,84.16
2016-11-24T01:46:00.538Z,83.87
2016-11-24T01:47:09.232Z,84.34
2016-11-24T01:48:17.925Z,85.76
2016-11-24T01:49:26.616Z,85.76
2016-11-24T01:50:35.311Z,85.38
2016-11-24T01:51:44.001Z,85.19
2016-11-24T01:52:52.692Z,85.38
2016-11-24T01:54:01.404Z,85.66
2016-11-24T01:55:10.092Z,84.81
2016-11-24T01:56:18.804Z,84.53
2016-11-24T01:57:27.498Z,84.16
2016-11-24T01:58:36.193Z,83.87
2016-11-24T01:59:44.880Z,83.78
2016-11-24T02:00:53.570Z,84.16
2016-11-24T02:02:02.268Z,83.11
2016-11-24T02:03:10.987Z,82.92
2016-11-24T02:04:19.676Z,83.02
2016-11-24T02:05:28.369Z,83.02
2016-11-24T02:06:37.067Z,83.11
2016-11-24T02:07:45.763Z,83.87
2016-11-24T02:08:54.456Z,83.87
2016-11-24T02:10:03.148Z,84.44
2016-11-24T02:11:11.834Z,84.44
2016-11-24T02:12:20.526Z,85.76
2016-11-24T02:13:29.212Z,85.38
2016-11-24T02:14:37.911Z,85.95
2016-11-24T02:15:46.918Z,86.1
2016-11-24T02:16:55.612Z,86.19
2016-11-24T02:18:04.619Z,86
2016-11-24T02:19:13.308Z,86.29
2016-11-24T02:20:21.997Z,86.29
2016-11-24T02:21:30.688Z,86
2016-11-24T02:22:39.376Z,86
2016-11-24T02:23:48.073Z,85.72
2016-11-24T02:24:56.768Z,85.43
2016-11-24T02:26:05.459Z,85.05
2016-11-24T02:27:14.179Z,85.57
2016-11-24T02:28:22.872Z,85.47
2016-11-24T02:29:31.560Z,85.57
2016-11-24T02:30:40.249Z,85.72
2016-11-24T02:31:48.942Z,86.57
2016-11-24T02:32:57.629Z,86.57
2016-11-24T02:34:06.321Z,86.66
2016-11-24T02:35:15.013Z,86.57
2016-11-24T02:36:23.703Z,86.66
2016-11-24T02:37:32.399Z,86.94
2016-11-24T02:38:41.091Z,86.47
2016-11-24T02:39:49.788Z,86.29
2016-11-24T02:40:58.476Z,86.38
2016-11-24T02:42:07.165Z,85.91
2016-11-24T02:43:15.856Z,86.1
2016-11-24T02:44:24.551Z,86.29
2016-11-24T02:45:33.247Z,86.85
2016-11-24T02:46:41.937Z,86.29
2016-11-24T02:47:50.625Z,85.34
2016-11-24T02:48:59.319Z,85.15
2016-11-24T02:50:08.014Z,84.58
2016-11-24T02:51:16.705Z,84.49
2016-11-24T02:52:25.396Z,83.92
2016-11-24T02:53:34.088Z,84.01
2016-11-24T02:54:42.786Z,84.01
2016-11-24T02:55:51.476Z,83.59
2016-11-24T02:57:00.494Z,83.83
2016-11-24T02:58:09.193Z,83.68
2016-11-24T02:59:17.881Z,83.59
2016-11-24T03:00:26.570Z,83.78
2016-11-24T03:01:35.259Z,83.78
2016-11-24T03:02:43.950Z,84.25
2016-11-24T03:03:52.639Z,84.25
2016-11-24T03:05:01.333Z,84.44
2016-11-24T03:06:10.393Z,84.3
2016-11-24T03:07:19.085Z,85.15
2016-11-24T03:08:27.778Z,85.15
2016-11-24T03:09:36.473Z,85.24
2016-11-24T03:10:45.165Z,84.96
2016-11-24T03:11:53.855Z,84.77
2016-11-24T03:13:02.545Z,85.15
2016-11-24T03:14:11.230Z,85.24
2016-11-24T03:15:19.918Z,85.24
2016-11-24T03:16:28.605Z,84.77
2016-11-24T03:17:37.293Z,84.68
2016-11-24T03:18:46.304Z,84.77
2016-11-24T03:19:54.996Z,84.77
2016-11-24T03:21:03.723Z,85.05
2016-11-24T03:22:12.417Z,85.53
2016-11-24T03:23:21.108Z,85.24
2016-11-24T03:24:29.798Z,85.72
2016-11-24T03:25:38.487Z,86.29
2016-11-24T03:26:47.176Z,86.29
2016-11-24T03:27:55.870Z,86.66
2016-11-24T03:29:04.563Z,86.85
2016-11-24T03:30:13.253Z,87.23
2016-11-24T03:31:21.944Z,87.51
2016-11-24T03:32:30.630Z,87.04
2016-11-24T03:33:39.319Z,87.42
2016-11-24T03:34:48.032Z,87.7
2016-11-24T03:35:56.727Z,88.08
2016-11-24T03:37:05.427Z,88.08
2016-11-24T03:38:14.121Z,87.98
2016-11-24T03:39:22.811Z,88.17
2016-11-24T03:40:31.493Z,88.55
2016-11-24T03:41:40.189Z,88.46
2016-11-24T03:42:48.879Z,87.79
2016-11-24T03:43:57.569Z,88.17
2016-11-24T03:45:06.255Z,87.42
2016-11-24T03:46:14.946Z,87.51
2016-11-24T03:47:23.636Z,87.7
2016-11-24T03:48:32.327Z,87.51
2016-11-24T03:49:41.014Z,87.51
2016-11-24T03:50:49.705Z,87.51
2016-11-24T03:51:58.397Z,87.7
2016-11-24T03:53:07.400Z,87.13
2016-11-24T03:54:16.087Z,88.17
2016-11-24T03:55:24.776Z,87.98
2016-11-24T03:56:33.466Z,87.79
2016-11-24T03:57:42.158Z,88.55
2016-11-24T03:58:50.841Z,88.17
2016-11-24T03:59:59.528Z,87.98
2016-11-24T04:01:08.218Z,88.84
2016-11-24T04:02:16.913Z,88.46
2016-11-24T04:03:25.599Z,88.46
2016-11-24T04:04:34.289Z,88.74
2016-11-24T04:05:42.989Z,88.84
2016-11-24T04:06:51.674Z,89.03
2016-11-24T04:08:00.365Z,89.03
2016-11-24T04:09:09.054Z,88.65
2016-11-24T04:10:18.057Z,88.93
2016-11-24T04:11:26.740Z,88.74
2016-11-24T04:12:35.438Z,88.74
2016-11-24T04:13:44.131Z,89.03
2016-11-24T04:14:52.830Z,88.84
2016-11-24T04:16:01.522Z,89.22
2016-11-24T04:17:10.208Z,88.36
2016-11-24T04:18:18.904Z,88.55
2016-11-24T04:19:27.608Z,88.36
2016-11-24T04:20:36.296Z,88.84
2016-11-24T04:21:44.985Z,88.84
2016-11-24T04:22:53.678Z,88.84
2016-11-24T04:24:02.365Z,89.03
2016-11-24T04:25:11.059Z,88.36
2016-11-24T04:26:19.745Z,88.65
2016-11-24T04:27:28.435Z,88.46
2016-11-24T04:28:37.127Z,88.27
2016-11-24T04:29:45.815Z,87.98
2016-11-24T04:30:54.508Z,88.17
2016-11-24T04:32:03.198Z,87.61
2016-11-24T04:33:11.887Z,87.04
2016-11-24T04:34:20.582Z,87.51
2016-11-24T04:35:29.276Z,87.13
2016-11-24T04:36:37.967Z,86.71
2016-11-24T04:37:46.654Z,86.1
2016-11-24T04:38:55.339Z,86.04
2016-11-24T04:40:04.027Z,85.85
2016-11-24T04:41:12.717Z,86.23
2016-11-24T04:42:21.406Z,86.52
2016-11-24T04:43:30.099Z,86.61
2016-11-24T04:44:38.789Z,86.8
2016-11-24T04:45:47.481Z,86.8
2016-11-24T04:46:56.172Z,87.46
2016-11-24T04:48:04.866Z,87.55
2016-11-24T04:49:13.557Z,87.37
2016-11-24T04:50:22.247Z,87.42
2016-11-24T04:51:30.933Z,87.61
2016-11-24T04:52:39.621Z,87.37
2016-11-24T04:53:48.311Z,87.04
2016-11-24T04:54:57.063Z,86.94
2016-11-24T04:56:05.750Z,87.27
2016-11-24T04:57:14.439Z,86.42
2016-11-24T04:58:23.127Z,86.04
2016-11-24T04:59:31.822Z,85.95
2016-11-24T05:00:40.517Z,86.04
2016-11-24T05:01:49.210Z,85.66
2016-11-24T05:02:57.898Z,85.76
2016-11-24T05:04:06.585Z,85.95
2016-11-24T05:05:15.272Z,85.66
2016-11-24T05:06:23.960Z,85.85
2016-11-24T05:07:32.654Z,85.28
2016-11-24T05:08:41.342Z,85.95
2016-11-24T05:09:50.036Z,86.04
2016-11-24T05:10:58.790Z,86.52
2016-11-24T05:12:07.482Z,86.33
2016-11-24T05:13:16.183Z,86.52
2016-11-24T05:14:24.898Z,86.52
2016-11-24T05:15:33.916Z,86.42
2016-11-24T05:16:42.607Z,85.95
2016-11-24T05:17:51.304Z,85.28
2016-11-24T05:18:59.998Z,85.85
2016-11-24T05:20:08.719Z,86.04
2016-11-24T05:21:17.406Z,86.42
2016-11-24T05:22:26.092Z,86.85
2016-11-24T05:23:34.783Z,86.66
2016-11-24T05:24:43.469Z,87.32
2016-11-24T05:25:52.153Z,86.66
2016-11-24T05:27:00.845Z,86.94
2016-11-24T05:28:09.534Z,87.23
2016-11-24T05:29:18.219Z,87.13
2016-11-24T05:30:26.911Z,87.32
2016-11-24T05:31:35.600Z,87.7
2016-11-24T05:32:44.296Z,87.51
2016-11-24T05:33:52.990Z,87.04
2016-11-24T05:35:01.684Z,87.23
2016-11-24T05:36:10.378Z,87.51
2016-11-24T05:37:19.066Z,87.42
2016-11-24T05:38:27.758Z,87.04
2016-11-24T05:39:36.457Z,86.94
2016-11-24T05:40:45.144Z,87.04
2016-11-24T05:41:53.834Z,87.13
2016-11-24T05:43:02.521Z,86.47
2016-11-24T05:44:11.209Z,86.57
2016-11-24T05:45:19.899Z,86
2016-11-24T05:46:28.687Z,85.62
2016-11-24T05:47:37.374Z,85.81
2016-11-24T05:48:46.066Z,85.57
2016-11-24T05:49:54.758Z,85.24
2016-11-24T05:51:03.788Z,85.72
2016-11-24T05:52:12.477Z,86.19
2016-11-24T05:53:21.172Z,86
2016-11-24T05:54:29.859Z,85.76
2016-11-24T05:55:38.556Z,85.66
2016-11-24T05:56:47.246Z,85.66
2016-11-24T05:57:55.930Z,85.66
2016-11-24T05:59:04.622Z,85.66
2016-11-24T06:00:13.311Z,85.85
2016-11-24T06:01:22.121Z,85.91
2016-11-24T06:02:30.817Z,86.38
2016-11-24T06:03:39.508Z,86.47
2016-11-24T06:04:48.202Z,86.66
2016-11-24T06:05:56.891Z,86.57
2016-11-24T06:07:05.585Z,86.57
2016-11-24T06:08:14.277Z,87.32
2016-11-24T06:09:22.964Z,87.23
2016-11-24T06:10:31.655Z,87.23
2016-11-24T06:11:40.349Z,86.8
2016-11-24T06:12:49.039Z,86.76
2016-11-24T06:13:57.729Z,86.99
2016-11-24T06:15:06.418Z,86.57
2016-11-24T06:16:15.109Z,86.99
2016-11-24T06:17:24.116Z,86.99
2016-11-24T06:18:32.809Z,87.08
2016-11-24T06:19:41.497Z,87.46
2016-11-24T06:20:50.188Z,87.27
2016-11-24T06:21:58.880Z,87.65
2016-11-24T06:23:07.571Z,87.55
2016-11-24T06:24:16.262Z,87.74
2016-11-24T06:25:24.951Z,87.65
2016-11-24T06:26:33.642Z,87.74
2016-11-24T06:27:42.362Z,87.18
2016-11-24T06:28:51.056Z,87.74
2016-11-24T06:29:59.749Z,87.55
2016-11-24T06:31:08.443Z,87.37
2016-11-24T06:32:17.139Z,87.27
2016-11-24T06:33:25.831Z,87.46
2016-11-24T06:34:34.525Z,87.27
2016-11-24T06:35:43.219Z,86.99
2016-11-24T06:36:51.905Z,86.99
2016-11-24T06:38:00.595Z,86.8
2016-11-24T06:39:09.295Z,87.08
2016-11-24T06:40:17.989Z,87.08
2016-11-24T06:41:26.681Z,87.08
2016-11-24T06:42:35.372Z,86.9
2016-11-24T06:43:44.113Z,86.23
2016-11-24T06:44:52.807Z,85.76
2016-11-24T06:46:01.498Z,85.95
2016-11-24T06:47:10.192Z,86.52
2016-11-24T06:48:18.883Z,86.61
2016-11-24T06:49:27.580Z,86.42
2016-11-24T06:50:36.277Z,86.61
2016-11-24T06:51:44.974Z,86.9
2016-11-24T06:52:53.700Z,87.46
2016-11-24T06:54:02.708Z,86.71
2016-11-24T06:55:11.722Z,86.99
2016-11-24T06:56:20.411Z,87.08
2016-11-24T06:57:29.102Z,86.99
2016-11-24T06:58:37.797Z,87.27
2016-11-24T06:59:46.488Z,87.08
2016-11-24T07:00:55.180Z,87.08
2016-11-24T07:02:03.878Z,87.55
2016-11-24T07:03:12.571Z,87.27
2016-11-24T07:04:21.264Z,87.55
2016-11-24T07:05:29.952Z,87.46
2016-11-24T07:06:38.694Z,87.74
2016-11-24T07:07:47.386Z,87.55
2016-11-24T07:08:56.115Z,87.18
2016-11-24T07:10:05.119Z,87.74
2016-11-24T07:11:13.809Z,87.08
2016-11-24T07:12:22.497Z,87.65
2016-11-24T07:13:31.190Z,87.74
2016-11-24T07:14:40.209Z,88.03
2016-11-24T07:15:48.905Z,88.6
2016-11-24T07:16:57.596Z,88.41
2016-11-24T07:18:06.289Z,88.41
2016-11-24T07:19:14.982Z,88.88
2016-11-24T07:20:23.672Z,88.69
2016-11-24T07:21:32.375Z,88.69
2016-11-24T07:22:41.387Z,89.45
2016-11-24T07:23:50.088Z,89.36
2016-11-24T07:24:58.774Z,88.98
2016-11-24T07:26:07.467Z,89.36
2016-11-24T07:27:16.155Z,89.83
2016-11-24T07:28:24.846Z,89.73
2016-11-24T07:29:33.533Z,89.64
2016-11-24T07:30:42.226Z,89.83
2016-11-24T07:31:50.920Z,89.83
2016-11-24T07:32:59.640Z,88.79
2016-11-24T07:34:08.335Z,89.54
2016-11-24T07:35:17.021Z,89.73
2016-11-24T07:36:25.716Z,89.45
2016-11-24T07:37:34.404Z,90.01
2016-11-24T07:38:43.095Z,89.83
2016-11-24T07:39:51.789Z,89.83
2016-11-24T07:41:00.475Z,90.01
2016-11-24T07:42:09.176Z,89.73
2016-11-24T07:43:17.863Z,88.98
2016-11-24T07:44:26.556Z,88.79
2016-11-24T07:45:35.249Z,89.45
2016-11-24T07:46:43.942Z,89.64
2016-11-24T07:47:52.629Z,88.98
2016-11-24T07:49:01.317Z,89.36
2016-11-24T07:50:10.006Z,89.36
2016-11-24T07:51:18.696Z,88.79
2016-11-24T07:52:27.384Z,89.36
2016-11-24T07:53:36.078Z,88.88
2016-11-24T07:54:44.772Z,88.98
2016-11-24T07:55:53.465Z,89.26
2016-11-24T07:57:02.165Z,89.07
2016-11-24T07:58:10.859Z,89.17
2016-11-24T07:59:19.548Z,88.41
2016-11-24T08:00:28.240Z,88.79
2016-11-24T08:01:36.935Z,89.36
2016-11-24T08:02:45.631Z,89.45
2016-11-24T08:03:54.348Z,89.36
2016-11-24T08:05:03.042Z,88.88
2016-11-24T08:06:11.741Z,89.36
2016-11-24T08:07:20.427Z,89.17
2016-11-24T08:08:29.116Z,88.12
2016-11-24T08:09:37.808Z,88.03
2016-11-24T08:10:46.499Z,87.08
2016-11-24T08:11:55.189Z,87.55
2016-11-24T08:13:03.881Z,87.74
2016-11-24T08:14:12.575Z,87.37
2016-11-24T08:15:21.590Z,87.74
2016-11-24T08:16:30.287Z,88.22
2016-11-24T08:17:39.000Z,87.84
2016-11-24T08:18:47.693Z,88.31
2016-11-24T08:19:56.724Z,88.03
2016-11-24T08:21:05.417Z,88.22
2016-11-24T08:22:14.115Z,88.12
2016-11-24T08:23:22.803Z,87.55
2016-11-24T08:24:31.497Z,88.12
2016-11-24T08:25:40.188Z,88.03
2016-11-24T08:26:48.881Z,88.12
2016-11-24T08:27:57.569Z,87.93
2016-11-24T08:29:06.262Z,87.37
2016-11-24T08:30:14.951Z,87.74
2016-11-24T08:31:23.652Z,86.9
2016-11-24T08:32:32.350Z,86.85
2016-11-24T08:33:41.082Z,86.37
2016-11-24T08:34:49.782Z,85.99
2016-11-24T08:35:58.502Z,85.52
2016-11-24T08:37:07.198Z,85.14
2016-11-24T08:38:15.892Z,85.14
2016-11-24T08:39:24.590Z,85.42
2016-11-24T08:40:33.321Z,85.61
2016-11-24T08:41:42.014Z,85.24
2016-11-24T08:42:50.704Z,85.99
2016-11-24T08:43:59.394Z,85.9
2016-11-24T08:45:08.085Z,85.9
2016-11-24T08:46:16.785Z,85.33
2016-11-24T08:47:25.473Z,85.33
2016-11-24T08:48:34.203Z,85.8
2016-11-24T08:49:42.940Z,85.61
2016-11-24T08:50:51.641Z,84.67
2016-11-24T08:52:00.336Z,85.61
2016-11-24T08:53:09.027Z,84.67
2016-11-24T08:54:17.720Z,84.1
2016-11-24T08:55:26.726Z,84.2
2016-11-24T08:56:35.423Z,84.1
2016-11-24T08:57:44.157Z,83.63
2016-11-24T08:58:52.850Z,83.53
2016-11-24T09:00:01.539Z,82.87
2016-11-24T09:01:10.548Z,83.63
2016-11-24T09:02:19.244Z,83.91
2016-11-24T09:03:27.959Z,82.68
2016-11-24T09:04:37.079Z,82.97
2016-11-24T09:05:45.956Z,82.4
2016-11-24T09:06:54.652Z,82.59
2016-11-24T09:08:03.346Z,82.97
2016-11-24T09:09:12.065Z,83.06
2016-11-24T09:10:20.750Z,83.91
2016-11-24T09:11:29.439Z,84.52
2016-11-24T09:12:38.128Z,85.47
2016-11-24T09:13:46.821Z,85.71
2016-11-24T09:14:55.514Z,85.71
2016-11-24T09:16:04.523Z,87.13
2016-11-24T09:17:13.241Z,87.79
2016-11-24T09:18:21.944Z,89.02
2016-11-24T09:19:30.629Z,89.87
2016-11-24T09:20:39.323Z,90.16
2016-11-24T09:21:48.018Z,90.82
2016-11-24T09:22:56.711Z,91.72
2016-11-24T09:24:05.402Z,92.47
2016-11-24T09:25:14.090Z,92.66
2016-11-24T09:26:22.781Z,93.51
2016-11-24T09:27:31.472Z,93.23
2016-11-24T09:28:40.198Z,94.46
2016-11-24T09:29:49.230Z,93.99
2016-11-24T09:30:57.926Z,94.65
2016-11-24T09:32:06.619Z,94.46
2016-11-24T09:33:15.315Z,94.56
2016-11-24T09:34:24.007Z,94.56
2016-11-24T09:35:32.711Z,94.27
2016-11-24T09:36:41.404Z,94.93
2016-11-24T09:37:50.098Z,94.84
2016-11-24T09:38:58.796Z,95.21
2016-11-24T09:40:07.495Z,95.21
2016-11-24T09:41:16.217Z,95.03
2016-11-24T09:42:24.907Z,95.31
2016-11-24T09:43:33.599Z,95.03
2016-11-24T09:44:42.292Z,95.31
2016-11-24T09:45:50.982Z,94.93
2016-11-24T09:46:59.674Z,94.84
2016-11-24T09:48:08.368Z,94.65
2016-11-24T09:49:17.069Z,93.99
2016-11-24T09:50:25.788Z,93.61
2016-11-24T09:51:34.484Z,93.13
2016-11-24T09:52:43.176Z,92.47
2016-11-24T09:53:51.866Z,92.19
2016-11-24T09:55:00.564Z,92
2016-11-24T09:56:09.573Z,91.43
2016-11-24T09:57:18.273Z,91.24
2016-11-24T09:58:27.000Z,90.96
2016-11-24T09:59:35.697Z,91.15
2016-11-24T10:00:44.388Z,90.72
2016-11-24T10:01:53.087Z,89.59
2016-11-24T10:03:01.780Z,89.02
2016-11-24T10:04:10.476Z,89.4
2016-11-24T10:05:19.165Z,89.59
2016-11-24T10:06:27.859Z,89.69
2016-11-24T10:07:36.553Z,89.78
2016-11-24T10:08:45.249Z,89.83
2016-11-24T10:09:53.942Z,89.54
2016-11-24T10:11:02.637Z,89.54
2016-11-24T10:12:11.327Z,89.83
2016-11-24T10:13:20.015Z,89.54
2016-11-24T10:14:28.706Z,89.02
2016-11-24T10:15:37.402Z,88.98
2016-11-24T10:16:46.097Z,89.5
2016-11-24T10:17:54.794Z,89.45
2016-11-24T10:19:03.804Z,89.31
2016-11-24T10:20:12.496Z,88.83
2016-11-24T10:21:21.205Z,89.02
2016-11-24T10:22:29.896Z,89.02
2016-11-24T10:23:38.588Z,88.83
2016-11-24T10:24:47.279Z,89.07
2016-11-24T10:25:55.972Z,89.54
2016-11-24T10:27:04.978Z,88.69
2016-11-24T10:28:13.674Z,89.12
2016-11-24T10:29:22.390Z,89.07
2016-11-24T10:30:31.091Z,88.88
2016-11-24T10:31:39.785Z,89.02
2016-11-24T10:32:48.482Z,88.74
2016-11-24T10:33:57.174Z,89.31
2016-11-24T10:35:05.873Z,88.45
2016-11-24T10:36:14.568Z,87.98
2016-11-24T10:37:23.762Z,87.98
2016-11-24T10:38:32.704Z,87.7
2016-11-24T10:39:41.403Z,87.7
2016-11-24T10:40:50.094Z,87.6
2016-11-24T10:41:58.790Z,87.6
2016-11-24T10:43:07.481Z,88.45
2016-11-24T10:44:16.174Z,88.26
2016-11-24T10:45:24.867Z,88.64
2016-11-24T10:46:33.561Z,88.26
2016-11-24T10:47:42.255Z,88.45
2016-11-24T10:48:50.988Z,89.07
2016-11-24T10:49:59.680Z,87.7
2016-11-24T10:51:08.374Z,86.37
2016-11-24T10:52:17.067Z,85
2016-11-24T10:53:25.761Z,82.57
2016-11-24T10:54:34.473Z,81.72
2016-11-24T10:55:43.163Z,82.48
2016-11-24T10:56:51.863Z,83.86
2016-11-24T10:58:00.564Z,84.71
2016-11-24T10:59:09.289Z,84.33
2016-11-24T11:00:18.000Z,83.81
2016-11-24T11:01:26.778Z,82.48
2016-11-24T11:02:35.504Z,81.53
2016-11-24T11:03:44.199Z,80.68
2016-11-24T11:04:52.894Z,80.49
2016-11-24T11:06:01.589Z,80.11
2016-11-24T11:07:10.286Z,80.02
2016-11-24T11:08:19.307Z,79.26
2016-11-24T11:09:28.006Z,78.07
2016-11-24T11:10:36.701Z,78.64
2016-11-24T11:11:45.392Z,79.96
2016-11-24T11:12:54.091Z,79.96
2016-11-24T11:14:02.796Z,79.96
2016-11-24T11:15:11.492Z,79.96
2016-11-24T11:16:20.190Z,79.64
2016-11-24T11:17:28.913Z,79.77
2016-11-24T11:18:37.615Z,78.54
2016-11-24T11:19:46.310Z,76.5
2016-11-24T11:20:55.016Z,75.93
2016-11-24T11:22:03.713Z,74.79
2016-11-24T11:23:12.413Z,74.16
2016-11-24T11:24:21.424Z,74.07
2016-11-24T11:25:30.121Z,74.69
2016-11-24T11:26:39.137Z,76.03
2016-11-24T11:27:47.874Z,77.25
2016-11-24T11:28:56.570Z,77.45
2016-11-24T11:30:05.262Z,77.97
2016-11-24T11:31:13.960Z,78.26
2016-11-24T11:32:22.652Z,78.83
2016-11-24T11:33:31.350Z,78.73
2016-11-24T11:34:40.084Z,78.83
2016-11-24T11:35:48.783Z,78.26
2016-11-24T11:36:57.824Z,77.35
2016-11-24T11:38:06.848Z,76.06
2016-11-24T11:39:15.547Z,73.6
2016-11-24T11:40:24.244Z,71.83
2016-11-24T11:41:32.949Z,69.87
2016-11-24T11:42:41.955Z,67.82
2016-11-24T11:43:50.651Z,66.67
2016-11-24T11:44:59.350Z,66.11
2016-11-24T11:46:08.053Z,66.71
2016-11-24T11:47:16.755Z,66.39
2016-11-24T11:48:25.458Z,66.24
2016-11-24T11:49:34.164Z,66.05
2016-11-24T11:50:42.867Z,65.95
2016-11-24T11:51:51.568Z,66.87
2016-11-24T11:53:00.295Z,68.54
2016-11-24T11:54:08.999Z,70.5
2016-11-24T11:55:18.048Z,72.4
2016-11-24T11:56:26.748Z,72.84
2016-11-24T11:57:35.449Z,73.31
2016-11-24T11:58:44.146Z,73.5
2016-11-24T11:59:52.840Z,73.22
2016-11-24T12:01:01.534Z,70.94
2016-11-24T12:02:10.232Z,72.42
2016-11-24T12:03:18.937Z,71.85
2016-11-24T12:04:27.637Z,73.18
2016-11-24T12:05:36.331Z,74.22
2016-11-24T12:06:45.026Z,75.98
2016-11-24T12:07:53.723Z,76.27
2016-11-24T12:09:02.447Z,77.5
2016-11-24T12:10:11.145Z,79.17
2016-11-24T12:11:19.842Z,80.3
2016-11-24T12:12:28.534Z,80.68
2016-11-24T12:13:37.232Z,81.44
2016-11-24T12:14:45.926Z,82.01
2016-11-24T12:15:54.646Z,80.02
2016-11-24T12:17:03.357Z,77.75
2016-11-24T12:18:12.055Z,76.42
2016-11-24T12:19:20.751Z,75.09
2016-11-24T12:20:29.448Z,73.61
2016-11-24T12:21:38.145Z,72.96
2016-11-24T12:22:46.843Z,72.1
2016-11-24T12:23:55.535Z,72.29
2016-11-24T12:25:04.252Z,72.29
2016-11-24T12:26:12.960Z,72.38
2016-11-24T12:27:21.986Z,72.86
2016-11-24T12:28:30.680Z,73.71
2016-11-24T12:29:39.373Z,74.18
2016-11-24T12:30:48.064Z,75.13
2016-11-24T12:31:56.761Z,74.95
2016-11-24T12:33:05.458Z,75.23
2016-11-24T12:34:14.160Z,75.7
2016-11-24T12:35:22.857Z,75.42
2016-11-24T12:36:31.868Z,75.23
2016-11-24T12:37:40.562Z,75.23
2016-11-24T12:38:49.258Z,76.74
2016-11-24T12:39:57.973Z,75.95
2016-11-24T12:41:06.668Z,76.23
2016-11-24T12:42:15.362Z,76.36
2016-11-24T12:43:24.057Z,76.65
2016-11-24T12:44:32.757Z,76.32
2016-11-24T12:45:41.454Z,76.46
2016-11-24T12:46:50.464Z,76.55
2016-11-24T12:47:59.161Z,75.98
2016-11-24T12:49:07.892Z,74.56
2016-11-24T12:50:16.593Z,75.51
2016-11-24T12:51:25.281Z,75.89
2016-11-24T12:52:33.970Z,76.46
2016-11-24T12:53:42.663Z,77.03
2016-11-24T12:54:51.355Z,77.5
2016-11-24T12:56:00.048Z,79.21
2016-11-24T12:57:08.744Z,79.07
2016-11-24T12:58:17.436Z,79.77
2016-11-24T12:59:26.442Z,80.15
2016-11-24T13:00:35.135Z,79.49
2016-11-24T13:01:43.827Z,78.35
2016-11-24T13:02:52.522Z,77.64
2016-11-24T13:04:01.217Z,76.68
2016-11-24T13:05:09.910Z,76.31
2016-11-24T13:06:18.604Z,76.31
2016-11-24T13:07:27.298Z,76.4
2016-11-24T13:08:36.029Z,77.31
2016-11-24T13:09:45.039Z,77.88
2016-11-24T13:10:53.735Z,78.16
2016-11-24T13:12:02.431Z,77.4
2016-11-24T13:13:11.126Z,77.22
2016-11-24T13:14:19.827Z,76.36
2016-11-24T13:15:28.523Z,75.42
2016-11-24T13:16:37.221Z,75.7
2016-11-24T13:17:45.918Z,76.74
2016-11-24T13:18:54.615Z,76.36
2016-11-24T13:20:03.309Z,76.8
2016-11-24T13:21:12.316Z,76.61
2016-11-24T13:22:21.003Z,76.8
2016-11-24T13:23:29.696Z,76.8
2016-11-24T13:24:38.489Z,76.42
2016-11-24T13:25:47.189Z,76.61
2016-11-24T13:26:55.886Z,76.32
2016-11-24T13:28:04.583Z,76.51
2016-11-24T13:29:13.596Z,76.7
2016-11-24T13:30:22.290Z,77.27
2016-11-24T13:31:31.023Z,77.65
2016-11-24T13:32:39.722Z,78.98
2016-11-24T13:33:48.730Z,80.3
2016-11-24T13:34:57.426Z,81.87
2016-11-24T13:36:06.118Z,83.2
2016-11-24T13:37:14.810Z,83.86
2016-11-24T13:38:23.504Z,83.67
2016-11-24T13:39:32.196Z,83.86
2016-11-24T13:40:40.887Z,84.23
2016-11-24T13:41:49.585Z,84.23
2016-11-24T13:42:58.282Z,83.48
2016-11-24T13:44:06.975Z,83.1
2016-11-24T13:45:15.697Z,82.44
2016-11-24T13:46:24.420Z,82.06
2016-11-24T13:47:33.115Z,81.96
2016-11-24T13:48:41.806Z,81.87
2016-11-24T13:49:50.821Z,82.72
2016-11-24T13:50:59.514Z,81.68
2016-11-24T13:52:08.215Z,81.49
2016-11-24T13:53:16.902Z,81.77
2016-11-24T13:54:25.597Z,82.44
2016-11-24T13:55:34.320Z,83.29
2016-11-24T13:56:43.009Z,83.95
2016-11-24T13:57:51.738Z,84.52
2016-11-24T13:59:00.430Z,84.95
2016-11-24T14:00:09.127Z,86.09
2016-11-24T14:01:17.843Z,86.66
2016-11-24T14:02:26.535Z,87.32
2016-11-24T14:03:35.231Z,87.23
2016-11-24T14:04:43.920Z,87.79
2016-11-24T14:05:52.641Z,88.17
2016-11-24T14:07:01.334Z,88.6
2016-11-24T14:08:10.032Z,88.55
2016-11-24T14:09:18.723Z,87.08
2016-11-24T14:10:27.425Z,87.23
2016-11-24T14:11:36.114Z,87.13
2016-11-24T14:12:44.811Z,86.56
2016-11-24T14:13:53.502Z,85.8
2016-11-24T14:15:02.197Z,85.9
2016-11-24T14:16:10.891Z,85.8
2016-11-24T14:17:19.588Z,85.38
2016-11-24T14:18:28.284Z,84.53
2016-11-24T14:19:36.976Z,84.1
2016-11-24T14:20:45.677Z,84.58
2016-11-24T14:21:54.409Z,84.95
2016-11-24T14:23:03.102Z,84.48
2016-11-24T14:24:11.791Z,84.77
2016-11-24T14:25:20.488Z,84.67
2016-11-24T14:26:29.188Z,84.67
2016-11-24T14:27:37.906Z,84.01
2016-11-24T14:28:46.596Z,84.86
2016-11-24T14:29:55.285Z,84.58
2016-11-24T14:31:03.979Z,84.77
2016-11-24T14:32:12.704Z,83.34
2016-11-24T14:33:21.399Z,83.53
2016-11-24T14:34:30.114Z,83.44
2016-11-24T14:35:38.805Z,83.25
2016-11-24T14:36:47.496Z,83.63
2016-11-24T14:37:56.189Z,83.63
2016-11-24T14:39:04.886Z,83.06
2016-11-24T14:40:13.574Z,83.15
2016-11-24T14:41:22.274Z,83.44
2016-11-24T14:42:30.968Z,83.25
2016-11-24T14:43:39.665Z,83.06
2016-11-24T14:44:48.372Z,82.4
2016-11-24T14:45:57.059Z,82.12
2016-11-24T14:47:05.748Z,82.02
2016-11-24T14:48:14.440Z,82.5